| time (UTC) | temp F | wind direction | speed MPH | gust MPH | rain 1hr in | rain 24hr in | rain mn in | humidity % | barometer mb |
| 20260505180004 | 54 | 232 | 5.0 | 11.0 | 0.00 | 0.87 | 0.87 | 88 | 1022.8 |
| 20260505175506 | 55 | 232 | 4.0 | 11.0 | 0.00 | 0.87 | 0.87 | 88 | 1022.8 |
| 20260505175004 | 55 | 236 | 3.0 | 11.0 | 0.01 | 0.87 | 0.87 | 88 | 1022.8 |
| 20260505174505 | 56 | 241 | 3.0 | 11.0 | 0.02 | 0.87 | 0.87 | 88 | 1022.8 |
| 20260505174004 | 57 | 244 | 1.0 | 10.0 | 0.02 | 0.87 | 0.87 | 87 | 1022.9 |
| 20260505173505 | 57 | 0 | 0.0 | 9.0 | 0.03 | 0.87 | 0.87 | 87 | 1022.8 |
| 20260505173004 | 57 | 0 | 0.0 | 0.0 | 0.05 | 0.87 | 0.87 | 87 | 1022.4 |
| 20260505172504 | 57 | 0 | 0.0 | 0.0 | 0.06 | 0.87 | 0.87 | 87 | 1022.7 |
| 20260505172004 | 57 | 0 | 0.0 | 0.0 | 0.06 | 0.87 | 0.87 | 88 | 1022.5 |
| 20260505170505 | 57 | 0 | 0.0 | 0.0 | 0.09 | 0.87 | 0.87 | 88 | 1022.0 |
| 20260505170004 | 57 | 0 | 0.0 | 0.0 | 0.10 | 0.87 | 0.87 | 88 | 1021.8 |
| 20260505165004 | 57 | 0 | 0.0 | 0.0 | 0.11 | 0.86 | 0.86 | 87 | 1022.2 |
| 20260505164505 | 57 | 0 | 0.0 | 0.0 | 0.11 | 0.85 | 0.85 | 87 | 1022.6 |
| 20260505164004 | 57 | 0 | 0.0 | 0.0 | 0.12 | 0.84 | 0.84 | 88 | 1022.2 |
| 20260505163505 | 57 | 0 | 0.0 | 0.0 | 0.11 | 0.83 | 0.83 | 87 | 1022.1 |
| 20260505163004 | 57 | 0 | 0.0 | 0.0 | 0.09 | 0.82 | 0.82 | 87 | 1022.0 |
| 20260505162505 | 57 | 0 | 0.0 | 0.0 | 0.09 | 0.81 | 0.81 | 87 | 1022.2 |
| 20260505162004 | 57 | 0 | 0.0 | 0.0 | 0.09 | 0.80 | 0.80 | 87 | 1022.0 |
| 20260505161505 | 58 | 0 | 0.0 | 0.0 | 0.09 | 0.80 | 0.80 | 87 | 1021.6 |
| 20260505161004 | 58 | 0 | 0.0 | 0.0 | 0.08 | 0.80 | 0.80 | 87 | 1021.6 |
| 20260505160505 | 58 | 0 | 0.0 | 0.0 | 0.07 | 0.78 | 0.78 | 87 | 1021.4 |
| 20260505153004 | 58 | 0 | 0.0 | 0.0 | 0.02 | 0.72 | 0.72 | 88 | 1021.2 |
| 20260505152504 | 58 | 0 | 0.0 | 0.0 | 0.01 | 0.72 | 0.72 | 87 | 1021.1 |
| 20260505152004 | 58 | 0 | 0.0 | 0.0 | 0.01 | 0.72 | 0.72 | 88 | 1021.0 |
| 20260505151505 | 58 | 0 | 0.0 | 0.0 | 0.01 | 0.72 | 0.72 | 88 | 1020.7 |
| 20260505151004 | 58 | 0 | 0.0 | 0.0 | 0.01 | 0.72 | 0.72 | 88 | 1021.2 |
| 20260505140505 | 58 | 0 | 0.0 | 0.0 | 0.03 | 0.70 | 0.70 | 87 | 1022.2 |
| 20260505125004 | 58 | 286 | 5.0 | 11.0 | 0.37 | 0.64 | 0.64 | 87 | 1022.9 |
| 20260505124004 | 58 | 257 | 3.0 | 10.0 | 0.35 | 0.61 | 0.61 | 87 | 1022.2 |
| 20260505123505 | 58 | 232 | 4.0 | 10.0 | 0.35 | 0.61 | 0.61 | 87 | 1022.3 |
| 20260505123004 | 58 | 229 | 4.0 | 12.0 | 0.34 | 0.60 | 0.60 | 87 | 1022.1 |
| 20260505122004 | 59 | 238 | 5.0 | 13.0 | 0.31 | 1.26 | 0.57 | 87 | 1022.3 |
| 20260505121505 | 59 | 243 | 6.0 | 14.0 | 0.30 | 1.25 | 0.56 | 87 | 1022.2 |
| 20260505121004 | 60 | 264 | 9.0 | 22.0 | 0.28 | 1.25 | 0.54 | 87 | 1022.5 |
| 20260505120005 | 63 | 275 | 6.0 | 21.0 | 0.12 | 1.24 | 0.38 | 86 | 1022.8 |
| 20260505114004 | 68 | 0 | 0.0 | 0.0 | 0.00 | 1.22 | 0.26 | 82 | 1021.6 |
| 20260505113504 | 68 | 0 | 0.0 | 0.0 | 0.00 | 1.22 | 0.26 | 81 | 1021.6 |
| 20260505113004 | 68 | 0 | 0.0 | 0.0 | 0.00 | 1.22 | 0.26 | 80 | 1021.6 |
| 20260505112504 | 68 | 0 | 0.0 | 0.0 | 0.00 | 1.22 | 0.26 | 80 | 1021.7 |
| 20260505112003 | 69 | 0 | 0.0 | 0.0 | 0.00 | 1.22 | 0.26 | 79 | 1021.4 |
| 20260505111504 | 69 | 0 | 0.0 | 2.0 | 0.00 | 1.22 | 0.26 | 79 | 1021.4 |
| 20260505111004 | 69 | 345 | 2.0 | 9.0 | 0.00 | 1.22 | 0.26 | 78 | 1021.5 |
| 20260505110504 | 69 | 334 | 4.0 | 14.0 | 0.00 | 1.22 | 0.26 | 78 | 1021.6 |
| 20260505102003 | 71 | 331 | 6.0 | 16.0 | 0.00 | 1.22 | 0.26 | 74 | 1022.6 |
| 20260505101506 | 72 | 333 | 4.0 | 11.0 | 0.00 | 1.22 | 0.26 | 74 | 1022.9 |
| 20260505101003 | 72 | 333 | 5.0 | 16.0 | 0.00 | 1.22 | 0.26 | 76 | 1023.3 |
| 20260505100004 | 70 | 353 | 4.0 | 13.0 | 0.00 | 1.22 | 0.26 | 77 | 1023.3 |
| 20260505095504 | 70 | 3 | 3.0 | 11.0 | 0.00 | 1.22 | 0.26 | 79 | 1023.3 |
| 20260505094505 | 67 | 15 | 5.0 | 11.0 | 0.00 | 1.22 | 0.26 | 82 | 1023.6 |
| 20260505093505 | 67 | 0 | 0.0 | 0.0 | 0.00 | 1.22 | 0.26 | 83 | 1023.9 |
| 20260505093004 | 67 | 0 | 0.0 | 0.0 | 0.00 | 1.22 | 0.26 | 83 | 1024.1 |
| 20260505092504 | 67 | 359 | 1.0 | 3.0 | 0.00 | 1.22 | 0.26 | 83 | 1024.2 |
| 20260505092003 | 66 | 3 | 1.0 | 6.0 | 0.00 | 1.22 | 0.26 | 83 | 1024.3 |
| 20260505091504 | 66 | 6 | 2.0 | 8.0 | 0.00 | 1.22 | 0.26 | 83 | 1024.5 |
| 20260505091004 | 66 | 15 | 2.0 | 8.0 | 0.00 | 1.22 | 0.26 | 83 | 1024.5 |
| 20260505090505 | 66 | 18 | 3.0 | 10.0 | 0.00 | 1.22 | 0.26 | 84 | 1024.7 |
| 20260505090005 | 66 | 18 | 3.0 | 10.0 | 0.00 | 1.22 | 0.26 | 84 | 1024.7 |
| 20260505085504 | 65 | 21 | 1.0 | 8.0 | 0.00 | 1.22 | 0.26 | 84 | 1024.9 |
| 20260505085004 | 65 | 0 | 0.0 | 7.0 | 0.00 | 1.22 | 0.26 | 85 | 1025.0 |
| 20260505084504 | 65 | 10 | 1.0 | 9.0 | 0.00 | 1.22 | 0.26 | 85 | 1025.0 |
| 20260505084004 | 65 | 15 | 1.0 | 9.0 | 0.00 | 1.22 | 0.26 | 85 | 1025.2 |
| 20260505083505 | 65 | 0 | 0.0 | 4.0 | 0.00 | 1.22 | 0.26 | 86 | 1025.3 |
| 20260505083003 | 65 | 0 | 0.0 | 4.0 | 0.00 | 1.22 | 0.26 | 86 | 1025.6 |
| 20260505082505 | 65 | 0 | 0.0 | 0.0 | 0.00 | 1.22 | 0.26 | 87 | 1025.7 |
| 20260505082004 | 64 | 0 | 0.0 | 0.0 | 0.00 | 1.22 | 0.26 | 87 | 1025.5 |
| 20260505081504 | 64 | 0 | 0.0 | 0.0 | 0.00 | 1.22 | 0.26 | 87 | 1026.0 |
| 20260505081004 | 64 | 0 | 0.0 | 0.0 | 0.00 | 1.22 | 0.26 | 87 | 1025.9 |
| 20260505080505 | 64 | 0 | 0.0 | 0.0 | 0.00 | 1.22 | 0.26 | 87 | 1026.0 |
| 20260505075505 | 63 | 0 | 0.0 | 0.0 | 0.00 | 1.22 | 0.26 | 87 | 1026.0 |
| 20260505075004 | 63 | 0 | 0.0 | 0.0 | 0.00 | 1.22 | 0.26 | 87 | 1026.1 |
| 20260505074505 | 63 | 0 | 0.0 | 0.0 | 0.00 | 1.22 | 0.26 | 87 | 1026.2 |
| 20260505074003 | 62 | 0 | 0.0 | 0.0 | 0.00 | 1.22 | 0.26 | 87 | 1026.2 |
| 20260505073505 | 62 | 0 | 0.0 | 0.0 | 0.00 | 1.22 | 0.26 | 87 | 1026.4 |
| 20260505072505 | 61 | 0 | 0.0 | 0.0 | 0.00 | 1.22 | 0.26 | 87 | 1026.6 |
| 20260505072004 | 61 | 0 | 0.0 | 0.0 | 0.00 | 1.22 | 0.26 | 87 | 1026.7 |
| 20260505071505 | 60 | 0 | 0.0 | 0.0 | 0.00 | 1.22 | 0.26 | 87 | 1026.4 |
| 20260505070505 | 59 | 0 | 0.0 | 0.0 | 0.00 | 1.22 | 0.26 | 87 | 1026.5 |
| 20260505070004 | 59 | 0 | 0.0 | 0.0 | 0.00 | 1.22 | 0.26 | 87 | 1026.6 |
| 20260505065505 | 59 | 0 | 0.0 | 0.0 | 0.01 | 1.22 | 0.26 | 87 | 1026.6 |
| 20260505065004 | 59 | 0 | 0.0 | 0.0 | 0.01 | 1.22 | 0.26 | 87 | 1026.7 |
| 20260505064505 | 58 | 0 | 0.0 | 0.0 | 0.01 | 1.22 | 0.26 | 87 | 1026.8 |
| 20260505064004 | 58 | 0 | 0.0 | 0.0 | 0.01 | 1.22 | 0.26 | 87 | 1026.9 |
| 20260505063505 | 58 | 0 | 0.0 | 0.0 | 0.01 | 1.22 | 0.26 | 87 | 1026.9 |
| 20260505063004 | 58 | 0 | 0.0 | 0.0 | 0.01 | 1.22 | 0.26 | 87 | 1026.6 |
| 20260505062505 | 58 | 0 | 0.0 | 0.0 | 0.01 | 1.22 | 0.26 | 87 | 1026.6 |
| 20260505062004 | 58 | 0 | 0.0 | 0.0 | 0.01 | 1.22 | 0.26 | 87 | 1027.0 |
| 20260505061505 | 58 | 0 | 0.0 | 0.0 | 0.01 | 1.22 | 0.26 | 87 | 1026.9 |
| 20260505061004 | 58 | 0 | 0.0 | 0.0 | 0.01 | 1.22 | 0.26 | 87 | 1026.8 |
| 20260505060505 | 58 | 0 | 0.0 | 0.0 | 0.01 | 1.22 | 0.26 | 87 | 1026.7 |
| 20260505060004 | 58 | 0 | 0.0 | 0.0 | 0.01 | 1.22 | 0.26 | 87 | 1026.8 |
| 20260505054505 | 58 | 0 | 0.0 | 0.0 | 0.00 | 1.22 | 0.25 | 87 | 1026.8 |
| 20260505054004 | 58 | 0 | 0.0 | 0.0 | 0.00 | 1.22 | 0.25 | 87 | 1026.8 |
| 20260505053505 | 58 | 0 | 0.0 | 0.0 | 0.00 | 1.22 | 0.25 | 87 | 1026.7 |
| 20260505053004 | 57 | 0 | 0.0 | 0.0 | 0.00 | 1.22 | 0.25 | 87 | 1026.6 |
| 20260505052004 | 57 | 0 | 0.0 | 0.0 | 0.00 | 1.22 | 0.25 | 87 | 1026.8 |
| 20260505051505 | 56 | 0 | 0.0 | 0.0 | 0.00 | 1.22 | 0.25 | 88 | 1027.0 |
| 20260505051004 | 56 | 0 | 0.0 | 0.0 | 0.00 | 1.22 | 0.25 | 87 | 1026.8 |
| 20260505035527 | 57 | 0 | 0.0 | 0.0 | 0.00 | 1.22 | 0.25 | 87 | 1026.9 |
| 20260505035010 | 57 | 0 | 0.0 | 0.0 | 0.00 | 1.22 | 0.25 | 87 | 1026.8 |
| 20260505034516 | 57 | 0 | 0.0 | 0.0 | 0.00 | 1.22 | 0.25 | 87 | 1026.5 |
| 20260505034036 | 57 | 0 | 0.0 | 0.0 | 0.00 | 1.22 | 0.25 | 87 | 1027.0 |
| 20260505033529 | 57 | 0 | 0.0 | 0.0 | 0.01 | 1.22 | 0.25 | 87 | 1027.0 |
| 20260505033054 | 57 | 0 | 0.0 | 0.0 | 0.01 | 1.22 | 0.25 | 87 | 1026.4 |
| 20260505032102 | 57 | 0 | 0.0 | 0.0 | 0.01 | 1.22 | 0.25 | 87 | 1026.7 |
| 20260505031536 | 57 | 0 | 0.0 | 0.0 | 0.01 | 1.22 | 0.25 | 87 | 1026.7 |
| 20260505031019 | 57 | 0 | 0.0 | 0.0 | 0.01 | 1.22 | 0.25 | 87 | 1026.5 |
| 20260505030515 | 57 | 0 | 0.0 | 0.0 | 0.01 | 1.22 | 0.25 | 87 | 1026.4 |
| 20260505025514 | 57 | 0 | 0.0 | 0.0 | 0.02 | 1.22 | 0.25 | 87 | 1026.6 |
| 20260505025016 | 57 | 0 | 0.0 | 0.0 | 0.02 | 1.22 | 0.25 | 87 | 1026.7 |
| 20260505024506 | 57 | 0 | 0.0 | 0.0 | 0.03 | 1.22 | 0.25 | 87 | 1026.7 |
| 20260505024021 | 57 | 0 | 0.0 | 0.0 | 0.04 | 1.22 | 0.24 | 87 | 1026.6 |
| 20260505023519 | 57 | 0 | 0.0 | 0.0 | 0.05 | 1.22 | 0.24 | 87 | 1026.6 |
| 20260505023004 | 57 | 0 | 0.0 | 0.0 | 0.06 | 1.22 | 0.24 | 87 | 1026.8 |
| 20260505022518 | 57 | 0 | 0.0 | 0.0 | 0.07 | 1.22 | 0.24 | 87 | 1026.8 |
| 20260505022004 | 57 | 0 | 0.0 | 0.0 | 0.09 | 1.22 | 0.24 | 87 | 1027.0 |
| 20260505021521 | 57 | 0 | 0.0 | 0.0 | 0.10 | 1.22 | 0.24 | 87 | 1027.2 |
| 20260505021018 | 57 | 0 | 0.0 | 0.0 | 0.12 | 1.22 | 0.24 | 87 | 1027.0 |
| 20260505020509 | 58 | 0 | 0.0 | 0.0 | 0.13 | 1.22 | 0.24 | 87 | 1026.9 |
| 20260505020022 | 58 | 0 | 0.0 | 0.0 | 0.14 | 1.22 | 0.24 | 87 | 1026.9 |
| 20260505015004 | 57 | 0 | 0.0 | 0.0 | 0.19 | 1.22 | 0.23 | 87 | 1027.6 |
| 20260505014017 | 57 | 0 | 0.0 | 0.0 | 0.19 | 1.22 | 0.20 | 87 | 1027.9 |
| 20260505013504 | 57 | 0 | 0.0 | 0.0 | 0.20 | 1.22 | 0.20 | 87 | 1027.8 |
| 20260505012513 | 58 | 271 | 4.0 | 11.0 | 0.17 | 1.22 | 0.17 | 87 | 1028.3 |
| 20260505012004 | 58 | 273 | 4.0 | 11.0 | 0.16 | 1.21 | 0.16 | 87 | 1028.3 |
| 20260505011515 | 58 | 277 | 4.0 | 11.0 | 0.14 | 1.21 | 0.14 | 87 | 1028.6 |
| 20260505011022 | 58 | 275 | 5.0 | 13.0 | 0.13 | 1.21 | 0.13 | 87 | 1028.4 |
| 20260505010524 | 58 | 271 | 6.0 | 13.0 | 0.11 | 1.21 | 0.11 | 87 | 1028.6 |
| 20260505010010 | 58 | 268 | 8.0 | 16.0 | 0.09 | 1.21 | 0.09 | 87 | 1028.7 |
| 20260505005520 | 58 | 262 | 6.0 | 16.0 | 0.08 | 1.21 | 0.08 | 87 | 1028.6 |
| 20260505005027 | 58 | 255 | 4.0 | 12.0 | 0.04 | 1.20 | 0.04 | 87 | 1028.5 |
| 20260505004515 | 58 | 261 | 5.0 | 15.0 | 0.02 | 1.20 | 0.02 | 87 | 1028.6 |
| 20260505004004 | 58 | 269 | 3.0 | 15.0 | 0.01 | 1.20 | 0.01 | 87 | 1028.5 |
| 20260505003516 | 58 | 0 | 0.0 | 8.0 | 0.00 | 1.20 | 0.00 | 87 | 1028.4 |
| 20260505003016 | 58 | 0 | 0.0 | 0.0 | 0.00 | 1.20 | 0.00 | 87 | 1027.1 |
| 20260505002520 | 57 | 0 | 0.0 | 0.0 | 0.00 | 1.20 | 0.00 | 87 | 1026.8 |
| 20260505002019 | 57 | 0 | 0.0 | 0.0 | 0.00 | 1.20 | 0.00 | 87 | 1026.8 |
| 20260505001026 | 57 | 0 | 0.0 | 0.0 | 0.00 | 1.20 | 0.00 | 87 | 1027.0 |
| 20260505000536 | 57 | 0 | 0.0 | 0.0 | 0.00 | 1.20 | 0.00 | 87 | 1027.0 |
| 20260505000004 | 57 | 0 | 0.0 | 0.0 | 0.00 | 1.20 | 0.00 | 87 | 1027.0 |
| 20260504235004 | 58 | 0 | 0.0 | 0.0 | 0.00 | 1.20 | 0.00 | 87 | 1026.9 |
| 20260504234505 | 58 | 0 | 0.0 | 0.0 | 0.00 | 1.20 | 0.00 | 87 | 1026.9 |
| 20260504234004 | 58 | 0 | 0.0 | 0.0 | 0.00 | 1.20 | 0.00 | 87 | 1027.1 |
| 20260504233505 | 58 | 0 | 0.0 | 0.0 | 0.00 | 1.20 | 0.00 | 87 | 1027.1 |
| 20260504233004 | 58 | 0 | 0.0 | 0.0 | 0.00 | 1.20 | 0.00 | 87 | 1027.1 |
| 20260504232505 | 58 | 0 | 0.0 | 0.0 | 0.00 | 1.20 | 0.00 | 87 | 1027.2 |
| 20260504232004 | 58 | 0 | 0.0 | 0.0 | 0.00 | 1.20 | 0.00 | 87 | 1027.3 |
| 20260504231505 | 58 | 0 | 0.0 | 0.0 | 0.00 | 1.20 | 0.00 | 87 | 1027.2 |
| 20260504231004 | 58 | 0 | 0.0 | 0.0 | 0.00 | 1.20 | 0.00 | 87 | 1027.1 |
| 20260504230505 | 58 | 0 | 0.0 | 0.0 | 0.00 | 1.20 | 0.00 | 87 | 1027.2 |
| 20260504230005 | 58 | 0 | 0.0 | 0.0 | 0.00 | 1.20 | 0.00 | 87 | 1027.2 |
| 20260504225004 | 58 | 0 | 0.0 | 0.0 | 0.00 | 1.20 | 0.00 | 87 | 1027.2 |
| 20260504224505 | 58 | 0 | 0.0 | 0.0 | 0.00 | 1.20 | 0.00 | 87 | 1027.3 |
| 20260504223504 | 58 | 0 | 0.0 | 0.0 | 0.00 | 1.20 | 0.00 | 87 | 1027.2 |
| 20260504223004 | 58 | 0 | 0.0 | 0.0 | 0.00 | 1.20 | 0.00 | 87 | 1027.2 |
| 20260504222505 | 59 | 0 | 0.0 | 0.0 | 0.00 | 1.20 | 0.00 | 87 | 1027.2 |
| 20260504222004 | 59 | 0 | 0.0 | 0.0 | 0.00 | 1.20 | 0.00 | 87 | 1027.3 |
| 20260504221505 | 59 | 0 | 0.0 | 0.0 | 0.00 | 1.20 | 0.00 | 87 | 1027.4 |
| 20260504221004 | 59 | 0 | 0.0 | 0.0 | 0.00 | 1.20 | 0.00 | 87 | 1027.7 |
| 20260504220505 | 59 | 0 | 0.0 | 0.0 | 0.00 | 1.20 | 0.00 | 87 | 1027.9 |
| 20260504215505 | 60 | 0 | 0.0 | 0.0 | 0.00 | 1.20 | 1.20 | 87 | 1028.0 |
| 20260504215004 | 60 | 0 | 0.0 | 0.0 | 0.00 | 1.20 | 1.20 | 87 | 1028.0 |
| 20260504214004 | 60 | 0 | 0.0 | 0.0 | 0.00 | 1.20 | 1.20 | 87 | 1028.0 |
| 20260504213004 | 60 | 0 | 0.0 | 0.0 | 0.00 | 1.20 | 1.20 | 87 | 1028.3 |
| 20260504212505 | 61 | 0 | 0.0 | 0.0 | 0.00 | 1.20 | 1.20 | 87 | 1028.4 |
| 20260504212004 | 61 | 0 | 0.0 | 0.0 | 0.00 | 1.20 | 1.20 | 86 | 1028.4 |
| 20260504211004 | 61 | 0 | 0.0 | 0.0 | 0.00 | 1.20 | 1.20 | 86 | 1028.4 |
| 20260504210505 | 62 | 0 | 0.0 | 0.0 | 0.00 | 1.20 | 1.20 | 86 | 1028.4 |
| 20260504210004 | 62 | 0 | 0.0 | 0.0 | 0.00 | 1.20 | 1.20 | 85 | 1028.5 |
| 20260504205505 | 62 | 0 | 0.0 | 0.0 | 0.00 | 1.20 | 1.20 | 85 | 1028.6 |
| 20260504205004 | 62 | 0 | 0.0 | 0.0 | 0.00 | 1.20 | 1.20 | 85 | 1028.8 |
| 20260504204505 | 63 | 0 | 0.0 | 0.0 | 0.00 | 1.20 | 1.20 | 84 | 1028.8 |
| 20260504204004 | 63 | 0 | 0.0 | 0.0 | 0.00 | 1.20 | 1.20 | 84 | 1028.8 |
| 20260504203505 | 63 | 0 | 0.0 | 0.0 | 0.00 | 1.20 | 1.20 | 84 | 1028.9 |
| 20260504203004 | 63 | 0 | 0.0 | 0.0 | 0.00 | 1.20 | 1.20 | 84 | 1029.0 |
| 20260504202505 | 64 | 0 | 0.0 | 0.0 | 0.00 | 1.20 | 1.20 | 84 | 1028.9 |
| 20260504202004 | 64 | 0 | 0.0 | 0.0 | 0.00 | 1.20 | 1.20 | 84 | 1029.0 |
| 20260504201505 | 64 | 0 | 0.0 | 0.0 | 0.00 | 1.20 | 1.20 | 84 | 1029.0 |
| 20260504201004 | 64 | 0 | 0.0 | 0.0 | 0.00 | 1.20 | 1.20 | 84 | 1029.1 |
| 20260504200505 | 64 | 0 | 0.0 | 0.0 | 0.00 | 1.20 | 1.20 | 84 | 1029.2 |
| 20260504200004 | 64 | 0 | 0.0 | 0.0 | 0.00 | 1.20 | 1.20 | 84 | 1028.9 |
| 20260504195505 | 64 | 0 | 0.0 | 0.0 | 0.00 | 1.20 | 1.20 | 84 | 1028.9 |
| 20260504195004 | 64 | 0 | 0.0 | 0.0 | 0.00 | 1.20 | 1.20 | 84 | 1028.9 |
| 20260504194505 | 64 | 0 | 0.0 | 0.0 | 0.00 | 1.20 | 1.20 | 84 | 1028.9 |
| 20260504194004 | 64 | 0 | 0.0 | 0.0 | 0.00 | 1.20 | 1.20 | 84 | 1029.0 |
| 20260504193505 | 64 | 0 | 0.0 | 0.0 | 0.00 | 1.20 | 1.20 | 84 | 1028.9 |
| 20260504192505 | 64 | 0 | 0.0 | 0.0 | 0.00 | 1.20 | 1.20 | 84 | 1028.8 |
| 20260504192004 | 64 | 0 | 0.0 | 0.0 | 0.00 | 1.20 | 1.20 | 84 | 1028.8 |
| 20260504191505 | 64 | 0 | 0.0 | 0.0 | 0.00 | 1.20 | 1.20 | 84 | 1028.8 |
| 20260504191004 | 64 | 0 | 0.0 | 0.0 | 0.00 | 1.20 | 1.20 | 83 | 1028.7 |
| 20260504190505 | 64 | 0 | 0.0 | 0.0 | 0.00 | 1.20 | 1.20 | 83 | 1028.7 |
| 20260504190004 | 65 | 0 | 0.0 | 0.0 | 0.00 | 1.20 | 1.20 | 83 | 1028.8 |
| 20260504185505 | 65 | 0 | 0.0 | 0.0 | 0.00 | 1.20 | 1.20 | 82 | 1028.7 |
| 20260504185004 | 65 | 0 | 0.0 | 0.0 | 0.00 | 1.20 | 1.20 | 82 | 1028.7 |
| 20260504184504 | 65 | 0 | 0.0 | 0.0 | 0.00 | 1.20 | 1.20 | 82 | 1028.7 |
| 20260504183505 | 65 | 0 | 0.0 | 0.0 | 0.00 | 1.20 | 1.20 | 81 | 1028.6 |
| 20260504183004 | 66 | 0 | 0.0 | 0.0 | 0.00 | 1.20 | 1.20 | 81 | 1028.8 |
| 20260504182505 | 66 | 0 | 0.0 | 0.0 | 0.00 | 1.20 | 1.20 | 81 | 1028.8 |
| 20260504182004 | 66 | 0 | 0.0 | 0.0 | 0.00 | 1.20 | 1.20 | 80 | 1028.8 |
| 20260504181004 | 66 | 0 | 0.0 | 0.0 | 0.00 | 1.20 | 1.20 | 80 | 1028.8 |